sensor_id;sensor_type;location;lat;lon;timestamp;pressure;altitude;pressure_sealevel;temperature;humidity
65832;BME280;52593;42.648;23.332;2022-07-29T00:01:49;94710.50;;;19.09;72.45
65832;BME280;52593;42.648;23.332;2022-07-29T00:04:14;94711.81;;;19.18;72.12
65832;BME280;52593;42.648;23.332;2022-07-29T00:06:40;94717.97;;;19.25;71.29
65832;BME280;52593;42.648;23.332;2022-07-29T00:09:05;94720.06;;;19.23;71.21
65832;BME280;52593;42.648;23.332;2022-07-29T00:11:31;94728.47;;;19.33;70.80
65832;BME280;52593;42.648;23.332;2022-07-29T00:13:57;94728.44;;;19.21;70.82
65832;BME280;52593;42.648;23.332;2022-07-29T00:16:22;94732.34;;;19.25;71.51
65832;BME280;52593;42.648;23.332;2022-07-29T00:18:48;94739.53;;;19.32;70.68
65832;BME280;52593;42.648;23.332;2022-07-29T00:21:14;94735.41;;;19.29;71.21
65832;BME280;52593;42.648;23.332;2022-07-29T00:23:39;94732.41;;;19.07;72.57
65832;BME280;52593;42.648;23.332;2022-07-29T00:26:05;94727.00;;;19.07;72.20
65832;BME280;52593;42.648;23.332;2022-07-29T00:28:30;94737.97;;;19.12;72.78
65832;BME280;52593;42.648;23.332;2022-07-29T00:30:56;94727.72;;;19.14;73.13
65832;BME280;52593;42.648;23.332;2022-07-29T00:33:21;94729.34;;;19.15;73.23
65832;BME280;52593;42.648;23.332;2022-07-29T00:35:48;94726.41;;;19.17;72.84
65832;BME280;52593;42.648;23.332;2022-07-29T00:38:18;94729.47;;;19.09;72.79
65832;BME280;52593;42.648;23.332;2022-07-29T00:40:44;94734.50;;;19.05;72.99
65832;BME280;52593;42.648;23.332;2022-07-29T00:43:11;94735.66;;;18.85;74.03
65832;BME280;52593;42.648;23.332;2022-07-29T00:45:37;94729.59;;;18.83;73.86
65832;BME280;52593;42.648;23.332;2022-07-29T00:48:03;94724.81;;;18.85;74.33
65832;BME280;52593;42.648;23.332;2022-07-29T00:50:30;94730.81;;;18.87;74.78
65832;BME280;52593;42.648;23.332;2022-07-29T00:52:56;94734.84;;;18.97;74.63
65832;BME280;52593;42.648;23.332;2022-07-29T00:55:22;94740.00;;;18.86;75.82
65832;BME280;52593;42.648;23.332;2022-07-29T00:57:47;94738.56;;;18.84;75.41
65832;BME280;52593;42.648;23.332;2022-07-29T01:00:25;94740.63;;;18.70;74.88
65832;BME280;52593;42.648;23.332;2022-07-29T01:02:50;94739.66;;;18.64;75.39
65832;BME280;52593;42.648;23.332;2022-07-29T01:05:18;94733.03;;;18.60;76.28
65832;BME280;52593;42.648;23.332;2022-07-29T01:07:45;94724.38;;;18.70;75.46
65832;BME280;52593;42.648;23.332;2022-07-29T01:10:13;94734.00;;;18.66;75.29
65832;BME280;52593;42.648;23.332;2022-07-29T01:12:39;94733.25;;;18.59;75.80
65832;BME280;52593;42.648;23.332;2022-07-29T01:15:07;94724.44;;;18.63;76.08
65832;BME280;52593;42.648;23.332;2022-07-29T01:20:10;94720.22;;;18.67;75.87
65832;BME280;52593;42.648;23.332;2022-07-29T01:26:27;94725.72;;;18.79;75.90
65832;BME280;52593;42.648;23.332;2022-07-29T01:32:06;94721.34;;;18.78;76.42
65832;BME280;52593;42.648;23.332;2022-07-29T01:35:03;94715.63;;;18.68;77.55
65832;BME280;52593;42.648;23.332;2022-07-29T01:40:27;94701.94;;;18.63;78.56
65832;BME280;52593;42.648;23.332;2022-07-29T01:42:58;94701.16;;;18.74;78.30
65832;BME280;52593;42.648;23.332;2022-07-29T01:45:30;94703.31;;;18.84;78.12
65832;BME280;52593;42.648;23.332;2022-07-29T01:50:40;94711.19;;;18.74;78.07
65832;BME280;52593;42.648;23.332;2022-07-29T01:53:10;94708.94;;;18.70;78.57
65832;BME280;52593;42.648;23.332;2022-07-29T01:55:40;94709.75;;;18.71;78.69
65832;BME280;52593;42.648;23.332;2022-07-29T01:58:08;94700.06;;;18.63;79.66
65832;BME280;52593;42.648;23.332;2022-07-29T02:00:36;94696.69;;;18.80;79.17
65832;BME280;52593;42.648;23.332;2022-07-29T02:03:07;94697.91;;;18.84;78.83
65832;BME280;52593;42.648;23.332;2022-07-29T02:05:35;94696.59;;;18.75;79.43
65832;BME280;52593;42.648;23.332;2022-07-29T02:08:02;94694.78;;;18.68;79.93
65832;BME280;52593;42.648;23.332;2022-07-29T02:10:31;94690.19;;;18.69;80.05
65832;BME280;52593;42.648;23.332;2022-07-29T02:12:58;94683.97;;;18.80;79.51
65832;BME280;52593;42.648;23.332;2022-07-29T02:15:27;94694.34;;;18.83;78.83
65832;BME280;52593;42.648;23.332;2022-07-29T02:18:01;94689.16;;;18.82;79.12
65832;BME280;52593;42.648;23.332;2022-07-29T02:20:27;94687.13;;;18.77;79.51
65832;BME280;52593;42.648;23.332;2022-07-29T02:22:54;94694.22;;;18.78;78.78
65832;BME280;52593;42.648;23.332;2022-07-29T02:25:22;94690.09;;;18.76;78.81
65832;BME280;52593;42.648;23.332;2022-07-29T02:27:50;94684.31;;;18.72;79.01
65832;BME280;52593;42.648;23.332;2022-07-29T02:30:17;94687.75;;;18.79;78.97
65832;BME280;52593;42.648;23.332;2022-07-29T02:32:43;94689.03;;;18.77;78.93
65832;BME280;52593;42.648;23.332;2022-07-29T02:35:12;94679.47;;;18.74;79.51
65832;BME280;52593;42.648;23.332;2022-07-29T02:37:39;94668.22;;;18.59;79.90
65832;BME280;52593;42.648;23.332;2022-07-29T02:40:09;94674.03;;;18.74;79.06
65832;BME280;52593;42.648;23.332;2022-07-29T02:42:37;94660.59;;;18.67;79.60
65832;BME280;52593;42.648;23.332;2022-07-29T02:45:05;94662.16;;;18.75;79.71
65832;BME280;52593;42.648;23.332;2022-07-29T02:47:36;94651.44;;;18.80;79.16
65832;BME280;52593;42.648;23.332;2022-07-29T02:50:10;94655.34;;;18.84;78.11
65832;BME280;52593;42.648;23.332;2022-07-29T02:52:58;94655.34;;;18.84;78.09
65832;BME280;52593;42.648;23.332;2022-07-29T02:56:07;94655.91;;;18.75;78.43
65832;BME280;52593;42.648;23.332;2022-07-29T03:00:47;94653.16;;;18.63;77.96
65832;BME280;52593;42.648;23.332;2022-07-29T03:03:15;94651.50;;;18.62;78.60
65832;BME280;52593;42.648;23.332;2022-07-29T03:05:42;94659.41;;;18.63;79.78
65832;BME280;52593;42.648;23.332;2022-07-29T03:08:11;94654.38;;;18.67;79.22
65832;BME280;52593;42.648;23.332;2022-07-29T03:10:39;94654.38;;;18.67;78.53
65832;BME280;52593;42.648;23.332;2022-07-29T03:13:05;94649.50;;;18.57;78.47
65832;BME280;52593;42.648;23.332;2022-07-29T03:15:33;94662.97;;;18.64;78.24
65832;BME280;52593;42.648;23.332;2022-07-29T03:17:59;94660.34;;;18.57;78.09
65832;BME280;52593;42.648;23.332;2022-07-29T03:20:26;94663.72;;;18.52;78.26
65832;BME280;52593;42.648;23.332;2022-07-29T03:22:51;94661.03;;;18.52;78.46
65832;BME280;52593;42.648;23.332;2022-07-29T03:25:18;94665.97;;;18.56;78.58
65832;BME280;52593;42.648;23.332;2022-07-29T03:27:44;94674.75;;;18.39;79.52
65832;BME280;52593;42.648;23.332;2022-07-29T03:30:11;94677.91;;;18.54;78.62
65832;BME280;52593;42.648;23.332;2022-07-29T03:32:37;94677.78;;;18.61;78.47
65832;BME280;52593;42.648;23.332;2022-07-29T03:35:03;94682.97;;;18.63;78.19
65832;BME280;52593;42.648;23.332;2022-07-29T03:37:29;94672.03;;;18.58;78.69
65832;BME280;52593;42.648;23.332;2022-07-29T03:39:57;94677.28;;;18.52;79.27
65832;BME280;52593;42.648;23.332;2022-07-29T03:42:25;94673.88;;;18.57;79.27
65832;BME280;52593;42.648;23.332;2022-07-29T03:44:52;94676.97;;;18.61;78.66
65832;BME280;52593;42.648;23.332;2022-07-29T03:47:23;94682.88;;;18.69;78.20
65832;BME280;52593;42.648;23.332;2022-07-29T03:49:52;94691.56;;;18.60;78.91
65832;BME280;52593;42.648;23.332;2022-07-29T03:52:20;94685.09;;;18.61;78.92
65832;BME280;52593;42.648;23.332;2022-07-29T03:54:46;94683.56;;;18.65;78.27
65832;BME280;52593;42.648;23.332;2022-07-29T03:57:13;94686.72;;;18.50;79.66
65832;BME280;52593;42.648;23.332;2022-07-29T03:59:39;94686.31;;;18.46;79.70
65832;BME280;52593;42.648;23.332;2022-07-29T04:02:09;94694.63;;;18.51;79.76
65832;BME280;52593;42.648;23.332;2022-07-29T04:04:36;94684.81;;;18.50;79.68
65832;BME280;52593;42.648;23.332;2022-07-29T04:07:02;94689.00;;;18.65;78.83
65832;BME280;52593;42.648;23.332;2022-07-29T04:09:27;94693.31;;;18.54;79.77
65832;BME280;52593;42.648;23.332;2022-07-29T04:11:53;94690.66;;;18.66;78.81
65832;BME280;52593;42.648;23.332;2022-07-29T04:14:19;94693.47;;;18.59;79.05
65832;BME280;52593;42.648;23.332;2022-07-29T04:16:45;94692.63;;;18.59;80.03
65832;BME280;52593;42.648;23.332;2022-07-29T04:19:11;94690.19;;;18.69;79.89
65832;BME280;52593;42.648;23.332;2022-07-29T04:21:40;94683.50;;;18.71;79.91
65832;BME280;52593;42.648;23.332;2022-07-29T04:24:06;94683.97;;;18.80;79.15
65832;BME280;52593;42.648;23.332;2022-07-29T04:26:32;94685.78;;;18.86;78.65
65832;BME280;52593;42.648;23.332;2022-07-29T04:28:57;94689.09;;;18.88;78.90
65832;BME280;52593;42.648;23.332;2022-07-29T04:31:22;94680.50;;;19.03;78.33
65832;BME280;52593;42.648;23.332;2022-07-29T04:33:48;94690.91;;;19.06;77.39
65832;BME280;52593;42.648;23.332;2022-07-29T04:36:13;94689.97;;;19.01;77.17
65832;BME280;52593;42.648;23.332;2022-07-29T04:38:39;94687.34;;;18.94;78.08
65832;BME280;52593;42.648;23.332;2022-07-29T04:41:05;94691.13;;;19.05;77.53
65832;BME280;52593;42.648;23.332;2022-07-29T04:43:32;94695.03;;;19.09;77.67
65832;BME280;52593;42.648;23.332;2022-07-29T04:45:58;94698.78;;;19.08;77.57
65832;BME280;52593;42.648;23.332;2022-07-29T04:48:23;94697.44;;;19.17;77.15
65832;BME280;52593;42.648;23.332;2022-07-29T04:50:49;94700.72;;;19.19;77.01
65832;BME280;52593;42.648;23.332;2022-07-29T04:53:14;94699.38;;;18.98;78.24
65832;BME280;52593;42.648;23.332;2022-07-29T04:55:39;94709.13;;;18.87;78.83
65832;BME280;52593;42.648;23.332;2022-07-29T04:58:05;94706.28;;;18.82;78.49
65832;BME280;52593;42.648;23.332;2022-07-29T05:00:30;94708.53;;;18.85;78.01
65832;BME280;52593;42.648;23.332;2022-07-29T05:02:55;94707.00;;;18.89;78.03
65832;BME280;52593;42.648;23.332;2022-07-29T05:05:21;94714.59;;;18.99;78.67
65832;BME280;52593;42.648;23.332;2022-07-29T05:07:46;94717.47;;;19.16;76.77
65832;BME280;52593;42.648;23.332;2022-07-29T05:10:11;94717.56;;;19.21;76.26
65832;BME280;52593;42.648;23.332;2022-07-29T05:12:37;94716.53;;;19.22;76.25
65832;BME280;52593;42.648;23.332;2022-07-29T05:15:03;94712.53;;;19.37;75.66
65832;BME280;52593;42.648;23.332;2022-07-29T05:17:28;94718.31;;;19.40;75.66
65832;BME280;52593;42.648;23.332;2022-07-29T05:19:54;94720.69;;;19.49;75.48
65832;BME280;52593;42.648;23.332;2022-07-29T05:22:19;94719.03;;;19.59;75.28
65832;BME280;52593;42.648;23.332;2022-07-29T05:24:45;94721.28;;;19.63;74.87
65832;BME280;52593;42.648;23.332;2022-07-29T05:27:10;94726.47;;;19.76;74.74
65832;BME280;52593;42.648;23.332;2022-07-29T05:29:36;94717.06;;;19.78;74.74
65832;BME280;52593;42.648;23.332;2022-07-29T05:32:02;94717.75;;;19.86;73.62
65832;BME280;52593;42.648;23.332;2022-07-29T05:34:27;94717.53;;;19.87;74.70
65832;BME280;52593;42.648;23.332;2022-07-29T05:36:53;94715.63;;;20.00;74.33
65832;BME280;52593;42.648;23.332;2022-07-29T05:39:18;94715.50;;;20.06;74.34
65832;BME280;52593;42.648;23.332;2022-07-29T05:41:43;94713.50;;;20.02;73.59
65832;BME280;52593;42.648;23.332;2022-07-29T05:44:09;94722.47;;;20.14;72.80
65832;BME280;52593;42.648;23.332;2022-07-29T05:46:34;94716.31;;;20.19;73.19
65832;BME280;52593;42.648;23.332;2022-07-29T05:49:00;94710.25;;;20.28;72.92
65832;BME280;52593;42.648;23.332;2022-07-29T05:51:25;94712.22;;;20.45;71.71
65832;BME280;52593;42.648;23.332;2022-07-29T05:53:51;94721.44;;;20.44;72.25
65832;BME280;52593;42.648;23.332;2022-07-29T05:56:16;94719.06;;;20.47;71.98
65832;BME280;52593;42.648;23.332;2022-07-29T05:58:42;94719.50;;;20.56;71.53
65832;BME280;52593;42.648;23.332;2022-07-29T06:01:07;94718.19;;;20.59;71.95
65832;BME280;52593;42.648;23.332;2022-07-29T06:03:32;94720.31;;;20.69;70.92
65832;BME280;52593;42.648;23.332;2022-07-29T06:05:58;94721.47;;;20.73;71.08
65832;BME280;52593;42.648;23.332;2022-07-29T06:08:23;94721.09;;;20.81;71.03
65832;BME280;52593;42.648;23.332;2022-07-29T06:10:49;94722.25;;;20.85;71.21
65832;BME280;52593;42.648;23.332;2022-07-29T06:13:14;94721.38;;;20.96;68.21
65832;BME280;52593;42.648;23.332;2022-07-29T06:15:41;94725.34;;;21.06;67.91
65832;BME280;52593;42.648;23.332;2022-07-29T06:18:07;94731.63;;;21.06;67.91
65832;BME280;52593;42.648;23.332;2022-07-29T06:20:34;94729.22;;;21.10;66.59
65832;BME280;52593;42.648;23.332;2022-07-29T06:23:00;94721.31;;;21.08;67.83
65832;BME280;52593;42.648;23.332;2022-07-29T06:25:27;94726.63;;;21.15;67.37
65832;BME280;52593;42.648;23.332;2022-07-29T06:27:54;94723.81;;;21.27;65.77
65832;BME280;52593;42.648;23.332;2022-07-29T06:30:19;94725.22;;;21.29;66.99
65832;BME280;52593;42.648;23.332;2022-07-29T06:32:45;94721.75;;;21.34;65.57
65832;BME280;52593;42.648;23.332;2022-07-29T06:35:10;94721.75;;;21.34;66.49
65832;BME280;52593;42.648;23.332;2022-07-29T06:37:35;94718.53;;;21.37;66.99
65832;BME280;52593;42.648;23.332;2022-07-29T06:40:01;94719.53;;;21.48;66.68
65832;BME280;52593;42.648;23.332;2022-07-29T06:42:44;94719.63;;;21.53;65.67
65832;BME280;52593;42.648;23.332;2022-07-29T06:45:11;94716.06;;;21.69;65.93
65832;BME280;52593;42.648;23.332;2022-07-29T06:47:37;94714.16;;;21.70;66.02
65832;BME280;52593;42.648;23.332;2022-07-29T06:50:03;94709.38;;;21.77;67.13
65832;BME280;52593;42.648;23.332;2022-07-29T06:52:29;94712.94;;;21.78;67.46
65832;BME280;52593;42.648;23.332;2022-07-29T06:54:54;94717.41;;;21.84;66.97
65832;BME280;52593;42.648;23.332;2022-07-29T06:57:20;94723.47;;;21.91;66.91
65832;BME280;52593;42.648;23.332;2022-07-29T06:59:46;94714.41;;;22.02;65.62
65832;BME280;52593;42.648;23.332;2022-07-29T07:02:11;94714.41;;;22.02;65.76
65832;BME280;52593;42.648;23.332;2022-07-29T07:04:37;94716.09;;;22.08;65.52
65832;BME280;52593;42.648;23.332;2022-07-29T07:07:02;94709.66;;;22.15;65.44
65832;BME280;52593;42.648;23.332;2022-07-29T07:09:27;94705.25;;;22.31;65.29
65832;BME280;52593;42.648;23.332;2022-07-29T07:11:53;94705.00;;;22.32;65.07
65832;BME280;52593;42.648;23.332;2022-07-29T07:14:18;94711.38;;;22.43;64.56
65832;BME280;52593;42.648;23.332;2022-07-29T07:16:44;94709.25;;;22.45;64.38
65832;BME280;52593;42.648;23.332;2022-07-29T07:19:09;94705.34;;;22.63;63.30
65832;BME280;52593;42.648;23.332;2022-07-29T07:21:34;94704.66;;;22.73;64.33
65832;BME280;52593;42.648;23.332;2022-07-29T07:24:00;94704.50;;;22.85;62.51
65832;BME280;52593;42.648;23.332;2022-07-29T07:26:26;94702.03;;;22.83;63.67
65832;BME280;52593;42.648;23.332;2022-07-29T07:28:52;94701.84;;;22.90;62.04
65832;BME280;52593;42.648;23.332;2022-07-29T07:31:17;94704.13;;;23.03;60.77
65832;BME280;52593;42.648;23.332;2022-07-29T07:33:42;94704.97;;;23.04;61.47
65832;BME280;52593;42.648;23.332;2022-07-29T07:36:08;94697.69;;;23.09;60.50
65832;BME280;52593;42.648;23.332;2022-07-29T07:38:33;94694.06;;;23.04;60.67
65832;BME280;52593;42.648;23.332;2022-07-29T07:41:00;94697.22;;;23.18;58.45
65832;BME280;52593;42.648;23.332;2022-07-29T07:43:25;94701.03;;;23.17;60.11
65832;BME280;52593;42.648;23.332;2022-07-29T07:45:51;94705.16;;;23.19;60.69
65832;BME280;52593;42.648;23.332;2022-07-29T07:48:16;94701.50;;;23.41;58.83
65832;BME280;52593;42.648;23.332;2022-07-29T07:50:41;94702.28;;;23.36;58.19
65832;BME280;52593;42.648;23.332;2022-07-29T07:53:08;94707.88;;;23.51;58.23
65832;BME280;52593;42.648;23.332;2022-07-29T07:55:39;94696.97;;;23.51;57.82
65832;BME280;52593;42.648;23.332;2022-07-29T07:58:05;94697.84;;;23.62;57.00
65832;BME280;52593;42.648;23.332;2022-07-29T08:00:30;94699.06;;;23.77;55.82
65832;BME280;52593;42.648;23.332;2022-07-29T08:02:57;94698.75;;;23.73;57.21
65832;BME280;52593;42.648;23.332;2022-07-29T08:05:22;94696.88;;;23.79;56.71
65832;BME280;52593;42.648;23.332;2022-07-29T08:07:48;94695.56;;;23.81;55.59
65832;BME280;52593;42.648;23.332;2022-07-29T08:10:15;94703.28;;;23.95;57.31
65832;BME280;52593;42.648;23.332;2022-07-29T08:13:05;94694.63;;;24.08;55.04
65832;BME280;52593;42.648;23.332;2022-07-29T08:15:30;94700.38;;;24.12;55.56
65832;BME280;52593;42.648;23.332;2022-07-29T08:17:56;94699.84;;;24.15;55.04
65832;BME280;52593;42.648;23.332;2022-07-29T08:20:21;94697.97;;;24.20;53.51
65832;BME280;52593;42.648;23.332;2022-07-29T08:22:47;94695.00;;;24.27;53.82
65832;BME280;52593;42.648;23.332;2022-07-29T08:25:12;94695.56;;;24.29;54.34
65832;BME280;52593;42.648;23.332;2022-07-29T08:27:37;94697.25;;;24.40;54.14
65832;BME280;52593;42.648;23.332;2022-07-29T08:30:03;94687.78;;;24.59;51.75
65832;BME280;52593;42.648;23.332;2022-07-29T08:32:29;94685.03;;;24.59;52.74
65832;BME280;52593;42.648;23.332;2022-07-29T08:34:54;94687.28;;;24.72;52.37
65832;BME280;52593;42.648;23.332;2022-07-29T08:37:20;94688.13;;;24.83;51.89
65832;BME280;52593;42.648;23.332;2022-07-29T08:39:45;94684.03;;;24.96;51.32
65832;BME280;52593;42.648;23.332;2022-07-29T08:42:11;94690.13;;;25.18;49.01
65832;BME280;52593;42.648;23.332;2022-07-29T08:44:36;94687.97;;;25.31;48.54
65832;BME280;52593;42.648;23.332;2022-07-29T08:47:02;94683.03;;;25.38;48.14
65832;BME280;52593;42.648;23.332;2022-07-29T08:49:28;94680.00;;;25.50;47.96
65832;BME280;52593;42.648;23.332;2022-07-29T08:51:55;94678.09;;;25.45;47.58
65832;BME280;52593;42.648;23.332;2022-07-29T08:54:23;94679.47;;;25.63;48.33
65832;BME280;52593;42.648;23.332;2022-07-29T08:56:49;94677.53;;;25.84;47.63
65832;BME280;52593;42.648;23.332;2022-07-29T08:59:19;94680.53;;;26.03;49.06
65832;BME280;52593;42.648;23.332;2022-07-29T09:01:46;94676.63;;;26.30;46.33
65832;BME280;52593;42.648;23.332;2022-07-29T09:04:13;94677.19;;;26.27;45.85
65832;BME280;52593;42.648;23.332;2022-07-29T09:06:43;94680.28;;;25.99;46.80
65832;BME280;52593;42.648;23.332;2022-07-29T09:09:10;94678.88;;;26.07;46.28
65832;BME280;52593;42.648;23.332;2022-07-29T09:11:37;94669.00;;;25.96;46.30
65832;BME280;52593;42.648;23.332;2022-07-29T09:14:02;94667.09;;;26.02;45.90
65832;BME280;52593;42.648;23.332;2022-07-29T09:16:48;94667.09;;;25.86;46.94
65832;BME280;52593;42.648;23.332;2022-07-29T09:19:21;94668.22;;;25.80;46.24
65832;BME280;52593;42.648;23.332;2022-07-29T09:21:47;94676.16;;;25.87;47.11
65832;BME280;52593;42.648;23.332;2022-07-29T09:27:00;94677.97;;;26.32;45.81
65832;BME280;52593;42.648;23.332;2022-07-29T09:29:25;94662.53;;;26.57;45.64
65832;BME280;52593;42.648;23.332;2022-07-29T09:31:53;94666.81;;;26.84;44.70
65832;BME280;52593;42.648;23.332;2022-07-29T09:34:24;94672.44;;;27.08;45.56
65832;BME280;52593;42.648;23.332;2022-07-29T09:36:52;94659.38;;;27.29;43.52
65832;BME280;52593;42.648;23.332;2022-07-29T09:39:35;94665.63;;;27.40;43.75
65832;BME280;52593;42.648;23.332;2022-07-29T09:42:05;94668.50;;;27.59;44.33
65832;BME280;52593;42.648;23.332;2022-07-29T09:44:45;94659.00;;;27.75;41.75
65832;BME280;52593;42.648;23.332;2022-07-29T09:47:11;94655.31;;;27.85;42.09
65832;BME280;52593;42.648;23.332;2022-07-29T09:49:54;94660.19;;;27.64;41.71
65832;BME280;52593;42.648;23.332;2022-07-29T09:52:20;94658.53;;;27.29;42.01
65832;BME280;52593;42.648;23.332;2022-07-29T09:54:46;94656.00;;;27.03;43.37
65832;BME280;52593;42.648;23.332;2022-07-29T09:57:26;94658.41;;;27.10;43.70
65832;BME280;52593;42.648;23.332;2022-07-29T10:00:00;94647.66;;;27.13;42.81
65832;BME280;52593;42.648;23.332;2022-07-29T10:02:31;94650.16;;;27.10;43.82
65832;BME280;52593;42.648;23.332;2022-07-29T10:04:56;94648.97;;;27.21;42.50
65832;BME280;52593;42.648;23.332;2022-07-29T10:07:22;94647.84;;;27.27;43.10
65832;BME280;52593;42.648;23.332;2022-07-29T10:09:56;94635.28;;;27.16;44.97
65832;BME280;52593;42.648;23.332;2022-07-29T10:12:22;94628.16;;;27.15;44.08
65832;BME280;52593;42.648;23.332;2022-07-29T10:14:49;94631.41;;;27.22;45.52
65832;BME280;52593;42.648;23.332;2022-07-29T10:17:15;94636.91;;;27.22;45.76
65832;BME280;52593;42.648;23.332;2022-07-29T10:19:41;94636.00;;;27.37;45.64
65832;BME280;52593;42.648;23.332;2022-07-29T10:22:09;94623.78;;;27.77;42.94
65832;BME280;52593;42.648;23.332;2022-07-29T10:24:36;94628.75;;;28.05;42.25
65832;BME280;52593;42.648;23.332;2022-07-29T10:27:08;94621.50;;;28.38;42.16
65832;BME280;52593;42.648;23.332;2022-07-29T10:29:34;94608.41;;;28.73;40.96
65832;BME280;52593;42.648;23.332;2022-07-29T10:43:42;94610.94;;;30.20;38.14
65832;BME280;52593;42.648;23.332;2022-07-29T10:46:09;94606.53;;;30.33;38.41
65832;BME280;52593;42.648;23.332;2022-07-29T10:48:35;94601.44;;;30.13;37.84
65832;BME280;52593;42.648;23.332;2022-07-29T10:51:04;94598.97;;;29.83;37.59
65832;BME280;52593;42.648;23.332;2022-07-29T10:53:53;94601.56;;;29.75;38.76
65832;BME280;52593;42.648;23.332;2022-07-29T10:56:25;94597.16;;;29.93;37.49
65832;BME280;52593;42.648;23.332;2022-07-29T11:01:43;94595.63;;;30.28;37.08
65832;BME280;52593;42.648;23.332;2022-07-29T11:04:09;94593.38;;;30.16;36.99
65832;BME280;52593;42.648;23.332;2022-07-29T11:07:14;94583.47;;;30.29;36.86
65832;BME280;52593;42.648;23.332;2022-07-29T11:09:41;94585.69;;;30.55;36.61
65832;BME280;52593;42.648;23.332;2022-07-29T11:15:10;94572.50;;;31.02;34.87
65832;BME280;52593;42.648;23.332;2022-07-29T11:20:45;94574.41;;;31.38;33.02
65832;BME280;52593;42.648;23.332;2022-07-29T11:25:43;94578.16;;;31.65;34.16
65832;BME280;52593;42.648;23.332;2022-07-29T11:28:14;94570.78;;;31.83;32.73
65832;BME280;52593;42.648;23.332;2022-07-29T11:30:52;94574.50;;;32.10;32.23
65832;BME280;52593;42.648;23.332;2022-07-29T11:33:31;94569.78;;;32.10;31.49
65832;BME280;52593;42.648;23.332;2022-07-29T11:36:14;94572.25;;;32.12;31.85
65832;BME280;52593;42.648;23.332;2022-07-29T11:38:40;94572.25;;;32.12;31.65
65832;BME280;52593;42.648;23.332;2022-07-29T11:43:58;94563.47;;;31.87;31.74
65832;BME280;52593;42.648;23.332;2022-07-29T11:46:50;94568.69;;;31.57;32.45
65832;BME280;52593;42.648;23.332;2022-07-29T11:49:21;94567.53;;;31.36;32.66
65832;BME280;52593;42.648;23.332;2022-07-29T11:51:55;94557.94;;;31.10;32.61
65832;BME280;52593;42.648;23.332;2022-07-29T11:54:28;94550.50;;;30.97;33.81
65832;BME280;52593;42.648;23.332;2022-07-29T11:56:57;94553.78;;;30.99;33.43
65832;BME280;52593;42.648;23.332;2022-07-29T11:59:22;94565.03;;;31.25;33.05
65832;BME280;52593;42.648;23.332;2022-07-29T12:01:55;94546.66;;;31.75;32.78
65832;BME280;52593;42.648;23.332;2022-07-29T12:04:21;94561.00;;;32.17;32.07
65832;BME280;52593;42.648;23.332;2022-07-29T12:06:55;94551.06;;;32.16;31.16
65832;BME280;52593;42.648;23.332;2022-07-29T12:09:23;94561.78;;;32.09;31.52
65832;BME280;52593;42.648;23.332;2022-07-29T12:11:58;94553.19;;;32.19;31.53
65832;BME280;52593;42.648;23.332;2022-07-29T12:14:31;94557.03;;;32.41;30.57
65832;BME280;52593;42.648;23.332;2022-07-29T12:16:58;94550.69;;;32.58;30.84
65832;BME280;52593;42.648;23.332;2022-07-29T12:19:24;94553.34;;;32.71;31.13
65832;BME280;52593;42.648;23.332;2022-07-29T12:21:51;94555.34;;;32.97;29.74
65832;BME280;52593;42.648;23.332;2022-07-29T12:24:18;94552.69;;;33.18;29.67
65832;BME280;52593;42.648;23.332;2022-07-29T12:26:55;94549.63;;;33.29;28.32
65832;BME280;52593;42.648;23.332;2022-07-29T12:29:20;94547.34;;;33.22;29.84
65832;BME280;52593;42.648;23.332;2022-07-29T12:31:51;94552.22;;;33.42;28.88
65832;BME280;52593;42.648;23.332;2022-07-29T12:34:20;94544.19;;;33.58;29.15
65832;BME280;52593;42.648;23.332;2022-07-29T12:36:48;94548.22;;;33.70;28.75
65832;BME280;52593;42.648;23.332;2022-07-29T12:39:15;94547.59;;;33.82;28.36
65832;BME280;52593;42.648;23.332;2022-07-29T12:41:41;94547.19;;;33.92;27.93
65832;BME280;52593;42.648;23.332;2022-07-29T12:44:06;94533.53;;;34.25;27.61
65832;BME280;52593;42.648;23.332;2022-07-29T12:46:32;94536.97;;;34.13;27.75
65832;BME280;52593;42.648;23.332;2022-07-29T12:48:57;94536.81;;;34.19;27.06
65832;BME280;52593;42.648;23.332;2022-07-29T12:51:39;94538.81;;;34.09;27.23
65832;BME280;52593;42.648;23.332;2022-07-29T12:54:12;94534.94;;;34.02;27.90
65832;BME280;52593;42.648;23.332;2022-07-29T12:56:43;94531.38;;;34.22;27.86
65832;BME280;52593;42.648;23.332;2022-07-29T12:59:19;94530.03;;;34.37;27.59
65832;BME280;52593;42.648;23.332;2022-07-29T13:01:47;94528.56;;;34.40;26.85
65832;BME280;52593;42.648;23.332;2022-07-29T13:04:27;94519.75;;;34.59;27.07
65832;BME280;52593;42.648;23.332;2022-07-29T13:07:03;94529.06;;;34.33;26.49
65832;BME280;52593;42.648;23.332;2022-07-29T13:09:41;94516.38;;;34.53;27.36
65832;BME280;52593;42.648;23.332;2022-07-29T13:12:11;94503.28;;;34.75;26.25
65832;BME280;52593;42.648;23.332;2022-07-29T13:14:46;94511.72;;;34.87;26.02
65832;BME280;52593;42.648;23.332;2022-07-29T13:17:22;94511.97;;;34.73;26.27
65832;BME280;52593;42.648;23.332;2022-07-29T13:19:53;94504.75;;;34.81;26.84
65832;BME280;52593;42.648;23.332;2022-07-29T13:22:29;94506.09;;;34.96;26.61
65832;BME280;52593;42.648;23.332;2022-07-29T13:24:57;94500.34;;;35.01;25.95
65832;BME280;52593;42.648;23.332;2022-07-29T13:27:27;94507.91;;;35.13;26.67
65832;BME280;52593;42.648;23.332;2022-07-29T13:29:54;94505.06;;;35.22;25.68
65832;BME280;52593;42.648;23.332;2022-07-29T13:32:22;94502.00;;;35.14;25.97
65832;BME280;52593;42.648;23.332;2022-07-29T13:34:47;94499.81;;;35.41;25.40
65832;BME280;52593;42.648;23.332;2022-07-29T13:37:12;94504.34;;;35.46;25.29
65832;BME280;52593;42.648;23.332;2022-07-29T13:39:38;94495.78;;;35.51;25.75
65832;BME280;52593;42.648;23.332;2022-07-29T13:42:05;94492.34;;;35.66;25.45